HST,Max TemperatureF,Mean TemperatureF,Min TemperatureF,Max Dew PointF,MeanDew PointF,Min DewpointF,Max Humidity, Mean Humidity, Min Humidity, Max Sea Level PressureIn, Mean Sea Level PressureIn, Min Sea Level PressureIn, Max VisibilityMiles, Mean VisibilityMiles, Min VisibilityMiles, Max Wind SpeedMPH, Mean Wind SpeedMPH, Max Gust SpeedMPH,PrecipitationIn, CloudCover, Events, WindDirDegrees
2011-11-1,82,78,73,69,66,61,73,67,56,30.00,29.96,29.92,10,10,10,13,5,,0.00,0,,7
2011-11-2,82,78,75,70,65,61,73,65,52,30.03,29.99,29.94,10,10,10,10,5,,0.00,2,Rain,137
2011-11-3,84,80,75,70,68,64,83,69,56,30.05,30.01,29.95,10,10,6,12,7,,0.00,3,Rain-Thunderstorm,149
2011-11-4,82,78,73,71,68,61,85,72,54,30.03,29.99,29.94,10,10,10,15,6,,0.00,2,,116
2011-11-5,82,78,73,69,67,65,76,68,58,30.00,29.97,29.93,10,10,10,12,6,,0.00,3,,125
2011-11-6,84,78,73,70,67,65,79,68,55,30.03,29.99,29.94,10,10,10,10,7,,0.00,3,,156
2011-11-7,82,78,73,68,66,62,76,68,58,30.06,30.01,29.97,10,10,10,13,7,,0.00,4,Rain,137
2011-11-8,84,80,75,69,66,58,79,66,50,30.06,30.01,29.96,10,10,10,13,6,,0.00,4,,150
2011-11-9,82,77,72,68,63,60,74,63,54,30.04,30.00,29.96,10,10,10,15,6,20,0.00,2,,106
2011-11-10,82,76,71,67,64,60,75,65,54,30.04,30.00,29.94,10,10,10,15,7,,0.00,1,,146
2011-11-11,81,76,71,67,65,61,74,66,58,30.04,30.00,29.96,10,10,10,12,6,,0.00,3,,133
2011-11-12,82,77,72,69,65,59,73,65,52,30.06,30.01,29.98,10,10,10,15,7,,0.00,2,,130
2011-11-13,82,76,70,68,66,62,76,68,60,30.05,30.02,29.97,10,10,10,12,5,,0.00,0,,144
2011-11-14,82,76,70,67,65,60,76,65,50,30.04,30.01,29.94,10,10,10,9,4,,0.00,2,,182
2011-11-15,82,76,70,68,66,62,76,67,54,30.01,29.97,29.92,10,10,10,10,4,17,0.00,1,,192
2011-11-16,80,76,71,68,66,61,76,68,56,30.01,29.97,29.93,10,10,10,9,5,,0.00,2,,183
2011-11-17,81,78,75,72,68,64,83,73,60,30.05,30.01,29.96,10,10,10,12,5,,0.00,3,Rain,164
2011-11-18,82,78,73,70,68,64,79,70,58,30.05,30.01,29.96,10,10,10,17,6,,0.00,1,Rain,72
2011-11-19,82,78,73,70,68,62,84,70,49,30.04,29.99,29.94,10,10,10,10,6,,0.00,5,,202
2011-11-20,82,78,73,69,66,61,79,68,58,30.03,29.98,29.94,10,10,10,14,6,,0.00,4,,124
2011-11-21,81,77,73,70,65,60,76,68,56,30.07,30.01,29.95,10,10,10,13,6,,0.00,3,Rain,145
2011-11-22,82,76,69,69,65,62,78,69,58,30.09,30.05,30.01,10,10,10,14,6,23,0.00,3,,134
2011-11-23,82,76,69,68,65,61,76,68,58,30.08,30.04,29.98,10,10,10,10,4,,0.00,4,Rain,137
2011-11-24,81,76,72,67,64,61,73,66,60,30.07,30.03,29.99,10,10,10,14,6,,0.00,2,,148
2011-11-25,81,76,71,68,64,57,75,67,57,30.08,30.05,29.99,10,10,10,9,5,,0.00,1,,115
2011-11-26,86,78,71,66,61,54,71,57,40,30.11,30.05,30.00,10,10,10,23,11,36,0.00,1,,69
2011-11-27,87,79,71,62,57,50,68,50,31,30.12,30.05,29.98,10,10,10,33,9,39,0.00,3,,34
2011-11-28,81,76,70,60,57,55,61,54,47,30.04,29.98,29.91,10,10,10,20,9,17,0.00,3,,46
2011-11-29,79,74,69,64,61,54,69,61,54,29.94,29.91,29.86,10,10,10,10,4,,0.00,3,,169
2011-11-30,81,75,69,64,61,57,70,61,49,29.96,29.91,29.85,10,10,10,10,6,,0.00,2,,115